createdAt,value
2023-02-07T00:02:21.184Z,9.61
2023-02-07T00:05:39.753Z,9.59
2023-02-07T00:08:52.105Z,9.58
2023-02-07T00:12:03.737Z,9.57
2023-02-07T00:15:25.505Z,9.58
2023-02-07T00:18:18.047Z,9.59
2023-02-07T00:21:47.201Z,9.58
2023-02-07T00:25:04.969Z,9.57
2023-02-07T00:27:54.135Z,9.58
2023-02-07T00:31:23.670Z,9.58
2023-02-07T00:34:43.421Z,9.57
2023-02-07T00:38:12.635Z,9.56
2023-02-07T00:41:41.979Z,9.53
2023-02-07T00:45:10.913Z,9.52
2023-02-07T00:48:32.622Z,9.49
2023-02-07T00:52:01.459Z,9.48
2023-02-07T00:55:12.887Z,9.45
2023-02-07T00:58:31.712Z,9.45
2023-02-07T01:02:00.777Z,9.45
2023-02-07T01:05:30.138Z,9.46
2023-02-07T01:08:59.434Z,9.46
2023-02-07T01:12:28.663Z,9.46
2023-02-07T01:15:57.980Z,9.46
2023-02-07T01:19:27.146Z,9.47
2023-02-07T01:22:56.190Z,9.47
2023-02-07T01:26:15.476Z,9.47
2023-02-07T01:29:45.234Z,9.45
2023-02-07T01:33:14.592Z,9.45
2023-02-07T01:35:52.097Z,9.44
2023-02-07T01:39:00.862Z,9.43
2023-02-07T01:42:30.202Z,9.42
2023-02-07T01:45:42.986Z,9.44
2023-02-07T01:49:15.588Z,9.46
2023-02-07T01:52:35.842Z,9.49
2023-02-07T01:55:50.472Z,9.50
2023-02-07T01:59:19.794Z,9.50
2023-02-07T02:02:48.951Z,9.52
2023-02-07T02:06:08.771Z,9.52
2023-02-07T02:09:37.824Z,9.52
2023-02-07T02:13:13.065Z,9.54
2023-02-07T02:16:47.790Z,9.55
2023-02-07T02:19:57.796Z,9.56
2023-02-07T02:23:50.356Z,9.58
2023-02-07T02:27:25.129Z,9.61
2023-02-07T02:30:43.675Z,9.65
2023-02-07T02:34:17.122Z,9.67
2023-02-07T02:37:58.477Z,9.67
2023-02-07T02:41:23.727Z,9.67
2023-02-07T02:44:50.300Z,9.67
2023-02-07T02:48:19.619Z,9.69
2023-02-07T02:51:49.295Z,9.70
2023-02-07T02:55:27.648Z,9.71
2023-02-07T02:58:39.713Z,9.69
2023-02-07T03:01:30.775Z,9.67
2023-02-07T03:05:13.547Z,9.66
2023-02-07T03:09:00.195Z,9.63
2023-02-07T03:12:22.047Z,9.61
2023-02-07T03:16:09.815Z,9.63
2023-02-07T03:19:26.427Z,9.63
2023-02-07T03:22:23.216Z,9.60
2023-02-07T03:25:52.665Z,9.58
2023-02-07T03:29:21.994Z,9.57
2023-02-07T03:32:34.087Z,9.53
2023-02-07T03:35:48.691Z,9.49
2023-02-07T03:39:17.405Z,9.46
2023-02-07T03:42:46.587Z,9.41
2023-02-07T03:45:29.142Z,9.38
2023-02-07T03:48:37.847Z,9.33
2023-02-07T03:52:07.519Z,9.28
2023-02-07T03:55:26.294Z,9.21
2023-02-07T03:58:14.016Z,9.19
2023-02-07T04:01:36.502Z,9.15
2023-02-07T04:05:05.985Z,9.12
2023-02-07T04:08:08.084Z,9.11
2023-02-07T04:11:43.355Z,9.09
2023-02-07T04:14:52.657Z,9.04
2023-02-07T04:18:03.871Z,9.01
2023-02-07T04:21:32.566Z,8.99
2023-02-07T04:24:33.565Z,8.96
2023-02-07T04:28:03.050Z,8.97
2023-02-07T04:31:32.361Z,8.96
2023-02-07T04:34:12.748Z,8.96
2023-02-07T04:37:01.214Z,8.96
2023-02-07T04:39:43.131Z,8.97
2023-02-07T04:43:12.265Z,8.97
2023-02-07T04:46:21.479Z,9.00
2023-02-07T04:49:53.514Z,9.01
2023-02-07T04:52:22.308Z,9.00
2023-02-07T04:55:16.732Z,8.98
2023-02-07T04:57:54.947Z,8.96
2023-02-07T05:01:03.979Z,8.96
2023-02-07T05:03:45.483Z,8.96
2023-02-07T05:06:33.503Z,8.93
2023-02-07T05:09:17.912Z,8.92
2023-02-07T05:12:00.898Z,8.90
2023-02-07T05:14:53.220Z,8.88
2023-02-07T05:17:35.888Z,8.84
2023-02-07T05:20:37.170Z,8.83
2023-02-07T05:23:39.501Z,8.82
2023-02-07T05:27:08.708Z,8.81
2023-02-07T05:30:01.566Z,8.81
2023-02-07T05:33:02.054Z,8.82
2023-02-07T05:36:12.730Z,8.83
2023-02-07T05:39:41.687Z,8.85
2023-02-07T05:42:13.538Z,8.87
2023-02-07T05:44:48.349Z,8.88
2023-02-07T05:47:20.492Z,8.91
2023-02-07T05:50:40.369Z,8.94
2023-02-07T05:53:30.045Z,8.97
2023-02-07T05:56:24.485Z,9.00
2023-02-07T05:59:53.908Z,9.01
2023-02-07T06:03:23.255Z,9.02
2023-02-07T06:06:25.189Z,9.04
2023-02-07T06:09:34.296Z,9.06
2023-02-07T06:12:10.445Z,9.06
2023-02-07T06:14:38.528Z,9.07
2023-02-07T06:17:26.536Z,9.09
2023-02-07T06:20:25.466Z,9.10
2023-02-07T06:23:26.843Z,9.10
2023-02-07T06:26:48.821Z,9.13
2023-02-07T06:29:58.374Z,9.16
2023-02-07T06:32:27.605Z,9.17
2023-02-07T06:35:49.715Z,9.18
2023-02-07T06:38:42.466Z,9.18
2023-02-07T06:41:17.966Z,9.20
2023-02-07T06:44:07.158Z,9.20
2023-02-07T06:46:56.509Z,9.21
2023-02-07T06:49:25.771Z,9.20
2023-02-07T06:51:57.557Z,9.17
2023-02-07T06:55:20.892Z,9.17
2023-02-07T06:58:13.480Z,9.14
2023-02-07T07:01:08.282Z,9.14
2023-02-07T07:04:27.757Z,9.16
2023-02-07T07:07:39.854Z,9.16
2023-02-07T07:10:27.990Z,9.16
2023-02-07T07:13:15.671Z,9.18
2023-02-07T07:15:54.682Z,9.18
2023-02-07T07:18:33.594Z,9.20
2023-02-07T07:21:42.576Z,9.21
2023-02-07T07:24:24.652Z,9.21
2023-02-07T07:27:18.951Z,9.22
2023-02-07T07:30:34.773Z,9.22
2023-02-07T07:33:44.123Z,9.20
2023-02-07T07:36:53.188Z,9.21
2023-02-07T07:40:13.104Z,9.21
2023-02-07T07:43:42.204Z,9.21
2023-02-07T07:46:31.505Z,9.21
2023-02-07T07:49:16.668Z,9.22
2023-02-07T07:51:48.416Z,9.24
2023-02-07T07:54:51.260Z,9.26
2023-02-07T07:58:00.661Z,9.26
2023-02-07T08:00:49.895Z,9.25
2023-02-07T08:03:45.101Z,9.25
2023-02-07T08:06:34.348Z,9.25
2023-02-07T08:09:43.738Z,9.25
2023-02-07T08:12:14.434Z,9.22
2023-02-07T08:15:06.579Z,9.21
2023-02-07T08:18:01.701Z,9.19
2023-02-07T08:20:50.474Z,9.18
2023-02-07T08:23:42.475Z,9.17
2023-02-07T08:26:31.513Z,9.16
2023-02-07T08:29:52.073Z,9.18
2023-02-07T08:32:27.413Z,9.20
2023-02-07T08:35:06.513Z,9.21
2023-02-07T08:38:27.902Z,9.21
2023-02-07T08:41:57.042Z,9.22
2023-02-07T08:45:26.402Z,9.24
2023-02-07T08:48:48.886Z,9.22
2023-02-07T08:52:18.360Z,9.19
2023-02-07T08:55:50.027Z,9.17
2023-02-07T08:58:42.313Z,9.15
2023-02-07T09:02:11.405Z,9.15
2023-02-07T09:05:40.839Z,9.13
2023-02-07T09:09:09.966Z,9.11
2023-02-07T09:12:39.716Z,9.09
2023-02-07T09:15:29.478Z,9.07
2023-02-07T09:18:07.978Z,9.05
2023-02-07T09:20:47.231Z,9.02
2023-02-07T09:23:56.152Z,8.98
2023-02-07T09:26:36.387Z,8.96
2023-02-07T09:29:16.717Z,8.95
2023-02-07T09:32:36.633Z,8.93
2023-02-07T09:36:06.976Z,8.93
2023-02-07T09:39:36.180Z,8.92
2023-02-07T09:43:14.117Z,8.92
2023-02-07T09:46:43.524Z,8.90
2023-02-07T09:49:45.039Z,8.86
2023-02-07T09:53:24.106Z,8.85
2023-02-07T09:56:54.196Z,8.84
2023-02-07T10:00:26.308Z,8.84
2023-02-07T10:03:33.056Z,8.83
2023-02-07T10:07:08.147Z,8.82
2023-02-07T10:09:47.763Z,8.83
2023-02-07T10:12:22.433Z,8.84
2023-02-07T10:15:19.774Z,8.87
2023-02-07T10:18:39.845Z,8.87
2023-02-07T10:22:21.030Z,8.89
2023-02-07T10:25:52.984Z,8.90
2023-02-07T10:29:43.361Z,8.92
2023-02-07T10:33:15.420Z,8.94
2023-02-07T10:36:44.836Z,8.95
2023-02-07T10:40:19.435Z,8.95
2023-02-07T10:43:48.374Z,8.94
2023-02-07T10:47:17.275Z,8.95
2023-02-07T10:50:47.218Z,8.96
2023-02-07T10:54:28.507Z,8.99
2023-02-07T10:57:02.498Z,9.02
2023-02-07T11:00:15.286Z,9.02
2023-02-07T11:03:40.580Z,9.03
2023-02-07T11:06:45.177Z,9.04
2023-02-07T11:10:19.401Z,9.06
2023-02-07T11:13:38.154Z,9.08
2023-02-07T11:16:31.933Z,9.09
2023-02-07T11:19:37.032Z,9.09
2023-02-07T11:23:12.705Z,9.10
2023-02-07T11:26:03.050Z,9.11
2023-02-07T11:29:35.474Z,9.13
2023-02-07T11:33:04.595Z,9.14
2023-02-07T11:36:42.802Z,9.16
2023-02-07T11:40:12.070Z,9.20
2023-02-07T11:43:41.235Z,9.22
2023-02-07T11:47:13.307Z,9.26
2023-02-07T11:50:42.419Z,9.28
2023-02-07T11:54:17.998Z,9.29
2023-02-07T11:57:47.375Z,9.29
2023-02-07T12:01:19.609Z,9.30
2023-02-07T12:04:22.125Z,9.30
2023-02-07T12:07:28.114Z,9.31
2023-02-07T12:10:12.567Z,9.33
2023-02-07T12:13:55.185Z,9.36
2023-02-07T12:17:06.669Z,9.39
2023-02-07T12:20:40.319Z,9.39
2023-02-07T12:24:09.706Z,9.38
2023-02-07T12:27:39.235Z,9.37
2023-02-07T12:30:50.836Z,9.37
2023-02-07T12:34:17.482Z,9.34
2023-02-07T12:37:55.559Z,9.33
2023-02-07T12:41:16.577Z,9.31
2023-02-07T12:44:57.279Z,9.32
2023-02-07T12:48:29.578Z,9.29
2023-02-07T12:51:44.981Z,9.27
2023-02-07T12:55:17.025Z,9.24
2023-02-07T12:58:58.257Z,9.23
2023-02-07T13:02:25.606Z,9.22
2023-02-07T13:05:53.125Z,9.19
2023-02-07T13:09:25.512Z,9.16
2023-02-07T13:12:54.570Z,9.13
2023-02-07T13:16:35.659Z,9.11
2023-02-07T13:20:10.955Z,9.08
2023-02-07T13:23:36.505Z,9.05
2023-02-07T13:26:38.158Z,9.02
2023-02-07T13:29:19.303Z,9.00
2023-02-07T13:32:49.994Z,9.00
2023-02-07T13:36:00.457Z,8.99
2023-02-07T13:38:53.030Z,8.99
2023-02-07T13:41:44.981Z,8.99
2023-02-07T13:44:47.131Z,8.99
2023-02-07T13:48:03.030Z,8.99
2023-02-07T13:51:38.225Z,9.00
2023-02-07T13:54:51.257Z,9.00
2023-02-07T13:58:37.030Z,8.97
2023-02-07T14:02:11.777Z,8.93
2023-02-07T14:05:50.399Z,8.91
2023-02-07T14:09:19.715Z,8.91
2023-02-07T14:12:57.248Z,8.89
2023-02-07T14:15:39.841Z,8.90
2023-02-07T14:19:24.652Z,8.89
2023-02-07T14:22:56.713Z,8.90
2023-02-07T14:26:21.132Z,8.90
2023-02-07T14:29:44.686Z,8.87
2023-02-07T14:33:26.641Z,8.86
2023-02-07T14:36:46.910Z,8.84
2023-02-07T14:39:46.171Z,8.85
2023-02-07T14:43:15.272Z,8.84
2023-02-07T14:46:53.836Z,8.84
2023-02-07T14:50:32.470Z,8.84
2023-02-07T14:53:51.230Z,8.84
2023-02-07T14:56:49.919Z,8.83
2023-02-07T15:00:06.081Z,8.86
2023-02-07T15:03:04.161Z,8.87
2023-02-07T15:05:41.297Z,8.90
2023-02-07T15:08:34.329Z,8.92
2023-02-07T15:12:26.568Z,8.92
2023-02-07T15:15:56.327Z,8.92
2023-02-07T15:19:19.717Z,8.90
2023-02-07T15:22:49.474Z,8.89
2023-02-07T15:26:18.758Z,8.88
2023-02-07T15:29:47.904Z,8.88
2023-02-07T15:33:17.122Z,8.87
2023-02-07T15:36:28.719Z,8.85
2023-02-07T15:40:00.422Z,8.81
2023-02-07T15:43:35.896Z,8.79
2023-02-07T15:46:17.531Z,8.79
2023-02-07T15:49:55.568Z,8.78
2023-02-07T15:53:36.344Z,8.77
2023-02-07T15:57:09.106Z,8.77
2023-02-07T16:00:38.356Z,8.78
2023-02-07T16:03:20.142Z,8.77
2023-02-07T16:06:52.273Z,8.77
2023-02-07T16:09:48.414Z,8.79
2023-02-07T16:13:23.499Z,8.78
2023-02-07T16:16:25.993Z,8.79
2023-02-07T16:19:45.511Z,8.79
2023-02-07T16:22:17.967Z,8.80
2023-02-07T16:25:04.125Z,8.79
2023-02-07T16:27:34.997Z,8.79
2023-02-07T16:30:15.795Z,8.80
2023-02-07T16:32:45.027Z,8.82
2023-02-07T16:35:48.280Z,8.82
2023-02-07T16:39:16.966Z,8.83
2023-02-07T16:42:13.830Z,8.84
2023-02-07T16:45:42.982Z,8.81
2023-02-07T16:49:13.910Z,8.79
2023-02-07T16:52:22.727Z,8.78
2023-02-07T16:55:51.703Z,8.76
2023-02-07T16:59:23.338Z,8.76
2023-02-07T17:02:55.512Z,8.76
2023-02-07T17:06:24.711Z,8.75
2023-02-07T17:09:57.022Z,8.74
2023-02-07T17:13:26.181Z,8.71
2023-02-07T17:16:55.446Z,8.68
2023-02-07T17:20:24.574Z,8.66
2023-02-07T17:24:24.008Z,8.64
2023-02-07T17:27:43.183Z,8.60
2023-02-07T17:31:14.586Z,8.57
2023-02-07T17:34:43.699Z,8.54
2023-02-07T17:38:12.823Z,8.53
2023-02-07T17:41:31.797Z,8.52
2023-02-07T17:45:01.089Z,8.50
2023-02-07T17:48:30.151Z,8.49
2023-02-07T17:51:59.643Z,8.50
2023-02-07T17:55:28.636Z,8.51
2023-02-07T17:58:58.075Z,8.52
2023-02-07T18:02:07.389Z,8.52
2023-02-07T18:05:00.169Z,8.52
2023-02-07T18:07:32.357Z,8.51
2023-02-07T18:10:01.095Z,8.49
2023-02-07T18:13:10.273Z,8.49
2023-02-07T18:16:42.406Z,8.48
2023-02-07T18:19:19.982Z,8.47
2023-02-07T18:21:52.008Z,8.49
2023-02-07T18:24:21.058Z,8.51
2023-02-07T18:26:55.841Z,8.52
2023-02-07T18:29:27.762Z,8.53
2023-02-07T18:32:21.884Z,8.52
2023-02-07T18:35:14.273Z,8.54
2023-02-07T18:38:33.971Z,8.56
2023-02-07T18:41:43.340Z,8.56
2023-02-07T18:45:12.270Z,8.55
2023-02-07T18:48:01.923Z,8.57
2023-02-07T18:51:11.487Z,8.59
2023-02-07T18:54:40.638Z,8.61
2023-02-07T18:58:09.592Z,8.63
2023-02-07T19:00:41.624Z,8.64
2023-02-07T19:04:10.978Z,8.67
2023-02-07T19:07:40.190Z,8.69
2023-02-07T19:11:09.636Z,8.71
2023-02-07T19:14:21.683Z,8.71
2023-02-07T19:17:50.972Z,8.73
2023-02-07T19:21:00.573Z,8.75
2023-02-07T19:24:22.928Z,8.76
2023-02-07T19:27:52.167Z,8.79
2023-02-07T19:31:20.839Z,8.85
2023-02-07T19:34:50.203Z,8.91
2023-02-07T19:38:19.368Z,8.95
2023-02-07T19:41:49.527Z,8.96
2023-02-07T19:45:21.965Z,9.01
2023-02-07T19:48:51.185Z,9.03
2023-02-07T19:52:10.385Z,9.07
2023-02-07T19:55:21.628Z,9.12
2023-02-07T19:58:50.646Z,9.17
2023-02-07T20:02:19.885Z,9.21
2023-02-07T20:05:49.017Z,9.24
2023-02-07T20:09:18.172Z,9.30
2023-02-07T20:12:47.137Z,9.34
2023-02-07T20:16:15.964Z,9.40
2023-02-07T20:19:38.007Z,9.45
2023-02-07T20:22:50.431Z,9.48
2023-02-07T20:26:19.565Z,9.50
2023-02-07T20:29:49.108Z,9.50
2023-02-07T20:33:18.507Z,9.52
2023-02-07T20:36:47.498Z,9.50
2023-02-07T20:40:16.628Z,9.49
2023-02-07T20:43:45.902Z,9.43
2023-02-07T20:47:15.236Z,9.40
2023-02-07T20:50:44.797Z,9.39
2023-02-07T20:54:13.733Z,9.37
2023-02-07T20:57:45.789Z,9.40
2023-02-07T21:01:16.916Z,9.48
2023-02-07T21:04:35.817Z,9.53
2023-02-07T21:08:06.034Z,9.59
2023-02-07T21:11:35.477Z,9.62
2023-02-07T21:14:55.508Z,9.65
2023-02-07T21:21:59.636Z,9.80
2023-02-07T21:25:20.418Z,9.85
2023-02-07T21:28:49.827Z,9.87
2023-02-07T21:32:22.759Z,9.88
2023-02-07T21:35:52.483Z,9.86
2023-02-07T21:39:21.939Z,9.87
2023-02-07T21:42:51.036Z,9.87
2023-02-07T21:46:20.461Z,9.86
2023-02-07T21:49:55.243Z,9.84
2023-02-07T21:53:15.040Z,9.79
2023-02-07T21:56:43.794Z,9.79
2023-02-07T22:00:12.491Z,9.80
2023-02-07T22:03:41.659Z,9.85
2023-02-07T22:07:10.399Z,9.86
2023-02-07T22:10:39.651Z,9.86
2023-02-07T22:14:08.965Z,9.87
2023-02-07T22:17:38.164Z,9.89
2023-02-07T22:21:07.398Z,9.92
2023-02-07T22:24:36.535Z,9.91
2023-02-07T22:27:56.099Z,9.91
2023-02-07T22:31:17.859Z,9.91
2023-02-07T22:34:47.139Z,9.91
2023-02-07T22:38:16.596Z,9.93
2023-02-07T22:41:45.975Z,9.96
2023-02-07T22:45:15.188Z,9.96
2023-02-07T22:48:44.189Z,9.96
2023-02-07T22:52:15.660Z,10.00
2023-02-07T22:55:43.644Z,10.05
2023-02-07T22:59:12.748Z,10.11
2023-02-07T23:02:42.001Z,10.17
2023-02-07T23:06:11.232Z,10.22
2023-02-07T23:09:40.033Z,10.27
2023-02-07T23:13:09.074Z,10.37
2023-02-07T23:16:38.360Z,10.45
2023-02-07T23:20:10.475Z,10.54
2023-02-07T23:23:39.654Z,10.64
2023-02-07T23:27:08.993Z,10.72
2023-02-07T23:30:38.348Z,10.81
2023-02-07T23:34:07.824Z,10.89
2023-02-07T23:37:20.723Z,10.96
2023-02-07T23:40:52.515Z,10.99
2023-02-07T23:44:21.899Z,11.05
2023-02-07T23:47:51.118Z,11.10
2023-02-07T23:51:20.091Z,11.12
2023-02-07T23:54:48.797Z,11.11
2023-02-07T23:58:17.968Z,11.07
